sensor_id;sensor_type;location;lat;lon;timestamp;temperature;humidity
11762;DHT22;5938;47.098;15.474;2023-09-19T00:00:09;17.30;99.90
11762;DHT22;5938;47.098;15.474;2023-09-19T00:04:15;17.20;99.90
11762;DHT22;5938;47.098;15.474;2023-09-19T00:08:25;17.20;99.90
11762;DHT22;5938;47.098;15.474;2023-09-19T00:12:33;17.20;99.90
11762;DHT22;5938;47.098;15.474;2023-09-19T00:16:39;17.20;99.90
11762;DHT22;5938;47.098;15.474;2023-09-19T00:20:45;17.10;99.90
11762;DHT22;5938;47.098;15.474;2023-09-19T00:24:53;17.20;99.90
11762;DHT22;5938;47.098;15.474;2023-09-19T00:28:59;17.20;99.90
11762;DHT22;5938;47.098;15.474;2023-09-19T00:33:08;17.20;99.90
11762;DHT22;5938;47.098;15.474;2023-09-19T00:37:14;17.10;99.90
11762;DHT22;5938;47.098;15.474;2023-09-19T00:41:23;17.10;99.90
11762;DHT22;5938;47.098;15.474;2023-09-19T00:45:30;17.10;99.90
11762;DHT22;5938;47.098;15.474;2023-09-19T00:49:35;17.10;99.90
11762;DHT22;5938;47.098;15.474;2023-09-19T00:53:41;17.10;99.90
11762;DHT22;5938;47.098;15.474;2023-09-19T00:57:53;17.10;99.90
11762;DHT22;5938;47.098;15.474;2023-09-19T01:02:02;17.10;99.90
11762;DHT22;5938;47.098;15.474;2023-09-19T01:06:12;17.10;99.90
11762;DHT22;5938;47.098;15.474;2023-09-19T01:10:19;17.10;99.90
11762;DHT22;5938;47.098;15.474;2023-09-19T01:14:50;17.10;99.90
11762;DHT22;5938;47.098;15.474;2023-09-19T01:19:16;17.00;99.90
11762;DHT22;5938;47.098;15.474;2023-09-19T01:23:39;17.00;99.90
11762;DHT22;5938;47.098;15.474;2023-09-19T01:28:15;17.00;99.90
11762;DHT22;5938;47.098;15.474;2023-09-19T01:32:27;17.10;99.90
11762;DHT22;5938;47.098;15.474;2023-09-19T01:36:36;17.00;99.90
11762;DHT22;5938;47.098;15.474;2023-09-19T01:40:42;17.10;99.90
11762;DHT22;5938;47.098;15.474;2023-09-19T01:44:54;17.10;99.90
11762;DHT22;5938;47.098;15.474;2023-09-19T01:49:15;17.10;99.90
11762;DHT22;5938;47.098;15.474;2023-09-19T01:53:27;17.10;99.90
11762;DHT22;5938;47.098;15.474;2023-09-19T01:57:45;17.10;99.90
11762;DHT22;5938;47.098;15.474;2023-09-19T02:01:57;17.10;99.90
11762;DHT22;5938;47.098;15.474;2023-09-19T02:06:06;17.10;99.90
11762;DHT22;5938;47.098;15.474;2023-09-19T02:10:15;17.00;99.90
11762;DHT22;5938;47.098;15.474;2023-09-19T02:14:23;17.10;99.90
11762;DHT22;5938;47.098;15.474;2023-09-19T02:18:28;17.10;99.90
11762;DHT22;5938;47.098;15.474;2023-09-19T02:22:37;17.00;99.90
11762;DHT22;5938;47.098;15.474;2023-09-19T02:26:43;17.00;99.90
11762;DHT22;5938;47.098;15.474;2023-09-19T02:30:49;17.00;99.90
11762;DHT22;5938;47.098;15.474;2023-09-19T02:34:55;17.00;99.90
11762;DHT22;5938;47.098;15.474;2023-09-19T02:39:05;17.00;99.90
11762;DHT22;5938;47.098;15.474;2023-09-19T02:43:13;17.00;99.90
11762;DHT22;5938;47.098;15.474;2023-09-19T02:47:21;17.00;99.90
11762;DHT22;5938;47.098;15.474;2023-09-19T02:51:26;16.90;99.90
11762;DHT22;5938;47.098;15.474;2023-09-19T02:55:34;17.00;99.90
11762;DHT22;5938;47.098;15.474;2023-09-19T02:59:41;16.90;99.90
11762;DHT22;5938;47.098;15.474;2023-09-19T03:03:55;16.90;99.90
11762;DHT22;5938;47.098;15.474;2023-09-19T03:08:01;16.90;99.90
11762;DHT22;5938;47.098;15.474;2023-09-19T03:12:07;16.90;99.90
11762;DHT22;5938;47.098;15.474;2023-09-19T03:16:14;16.90;99.90
11762;DHT22;5938;47.098;15.474;2023-09-19T03:20:22;16.90;99.90
11762;DHT22;5938;47.098;15.474;2023-09-19T03:24:30;16.80;99.90
11762;DHT22;5938;47.098;15.474;2023-09-19T03:28:37;16.60;99.90
11762;DHT22;5938;47.098;15.474;2023-09-19T03:32:46;16.50;99.90
11762;DHT22;5938;47.098;15.474;2023-09-19T03:36:56;16.40;99.90
11762;DHT22;5938;47.098;15.474;2023-09-19T04:01:14;16.20;99.90
11762;DHT22;5938;47.098;15.474;2023-09-19T04:05:21;16.20;99.90
11762;DHT22;5938;47.098;15.474;2023-09-19T04:18:38;16.10;99.90
11762;DHT22;5938;47.098;15.474;2023-09-19T04:22:44;16.10;99.90
11762;DHT22;5938;47.098;15.474;2023-09-19T04:26:50;16.10;99.90
11762;DHT22;5938;47.098;15.474;2023-09-19T04:31:06;16.10;99.90
11762;DHT22;5938;47.098;15.474;2023-09-19T04:35:29;16.10;99.90
11762;DHT22;5938;47.098;15.474;2023-09-19T04:39:39;16.10;99.90
11762;DHT22;5938;47.098;15.474;2023-09-19T04:43:45;16.00;99.90
11762;DHT22;5938;47.098;15.474;2023-09-19T04:47:48;16.00;99.90
11762;DHT22;5938;47.098;15.474;2023-09-19T04:51:53;16.00;99.90
11762;DHT22;5938;47.098;15.474;2023-09-19T04:55:57;15.90;99.90
11762;DHT22;5938;47.098;15.474;2023-09-19T05:00:01;15.90;99.90
11762;DHT22;5938;47.098;15.474;2023-09-19T05:04:09;15.90;99.90
11762;DHT22;5938;47.098;15.474;2023-09-19T05:08:13;15.90;99.90
11762;DHT22;5938;47.098;15.474;2023-09-19T05:12:17;15.90;99.90
11762;DHT22;5938;47.098;15.474;2023-09-19T05:16:22;15.90;99.90
11762;DHT22;5938;47.098;15.474;2023-09-19T05:20:26;15.80;99.90
11762;DHT22;5938;47.098;15.474;2023-09-19T05:24:36;15.90;99.90
11762;DHT22;5938;47.098;15.474;2023-09-19T05:28:40;15.80;99.90
11762;DHT22;5938;47.098;15.474;2023-09-19T05:32:45;15.80;99.90
11762;DHT22;5938;47.098;15.474;2023-09-19T05:36:53;15.90;99.90
11762;DHT22;5938;47.098;15.474;2023-09-19T05:41:31;15.90;99.90
11762;DHT22;5938;47.098;15.474;2023-09-19T05:45:35;16.00;99.90
11762;DHT22;5938;47.098;15.474;2023-09-19T05:49:39;16.10;99.90
11762;DHT22;5938;47.098;15.474;2023-09-19T05:53:43;16.10;99.90
11762;DHT22;5938;47.098;15.474;2023-09-19T05:57:51;16.10;99.90
11762;DHT22;5938;47.098;15.474;2023-09-19T06:01:54;16.30;99.90
11762;DHT22;5938;47.098;15.474;2023-09-19T06:05:58;16.30;99.90
11762;DHT22;5938;47.098;15.474;2023-09-19T06:10:02;16.40;99.90
11762;DHT22;5938;47.098;15.474;2023-09-19T06:14:09;16.50;99.90
11762;DHT22;5938;47.098;15.474;2023-09-19T06:18:13;16.60;99.90
11762;DHT22;5938;47.098;15.474;2023-09-19T06:22:21;16.60;99.90
11762;DHT22;5938;47.098;15.474;2023-09-19T06:26:27;16.80;99.90
11762;DHT22;5938;47.098;15.474;2023-09-19T06:30:33;16.80;99.90
11762;DHT22;5938;47.098;15.474;2023-09-19T06:34:37;16.90;99.90
11762;DHT22;5938;47.098;15.474;2023-09-19T06:38:40;16.90;99.90
11762;DHT22;5938;47.098;15.474;2023-09-19T06:42:47;16.80;99.90
11762;DHT22;5938;47.098;15.474;2023-09-19T06:46:54;16.90;99.90
11762;DHT22;5938;47.098;15.474;2023-09-19T06:50:59;17.00;99.90
11762;DHT22;5938;47.098;15.474;2023-09-19T06:55:06;17.10;99.90
11762;DHT22;5938;47.098;15.474;2023-09-19T06:59:11;17.20;99.90
11762;DHT22;5938;47.098;15.474;2023-09-19T07:03:17;17.40;99.90
11762;DHT22;5938;47.098;15.474;2023-09-19T07:07:22;17.50;99.90
11762;DHT22;5938;47.098;15.474;2023-09-19T07:11:26;17.60;99.90
11762;DHT22;5938;47.098;15.474;2023-09-19T07:15:32;17.70;99.90
11762;DHT22;5938;47.098;15.474;2023-09-19T07:19:39;17.60;99.90
11762;DHT22;5938;47.098;15.474;2023-09-19T07:23:42;17.60;99.90
11762;DHT22;5938;47.098;15.474;2023-09-19T07:27:46;17.60;99.90
11762;DHT22;5938;47.098;15.474;2023-09-19T07:31:49;17.70;99.90
11762;DHT22;5938;47.098;15.474;2023-09-19T07:35:54;17.60;99.90
11762;DHT22;5938;47.098;15.474;2023-09-19T07:39:59;17.60;99.90
11762;DHT22;5938;47.098;15.474;2023-09-19T07:44:03;17.60;99.90
11762;DHT22;5938;47.098;15.474;2023-09-19T07:48:07;17.50;99.90
11762;DHT22;5938;47.098;15.474;2023-09-19T07:52:18;17.60;99.90
11762;DHT22;5938;47.098;15.474;2023-09-19T07:56:24;17.60;99.90
11762;DHT22;5938;47.098;15.474;2023-09-19T08:00:29;17.60;99.90
11762;DHT22;5938;47.098;15.474;2023-09-19T08:04:34;17.90;99.90
11762;DHT22;5938;47.098;15.474;2023-09-19T08:08:39;18.30;99.90
11762;DHT22;5938;47.098;15.474;2023-09-19T08:12:44;18.70;99.90
11762;DHT22;5938;47.098;15.474;2023-09-19T08:16:49;19.10;99.90
11762;DHT22;5938;47.098;15.474;2023-09-19T08:20:53;19.70;99.90
11762;DHT22;5938;47.098;15.474;2023-09-19T08:24:58;19.70;99.90
11762;DHT22;5938;47.098;15.474;2023-09-19T08:29:05;20.10;99.90
11762;DHT22;5938;47.098;15.474;2023-09-19T08:33:09;20.60;99.90
11762;DHT22;5938;47.098;15.474;2023-09-19T08:37:15;20.40;99.90
11762;DHT22;5938;47.098;15.474;2023-09-19T08:41:20;20.70;99.90
11762;DHT22;5938;47.098;15.474;2023-09-19T08:45:25;22.50;99.90
11762;DHT22;5938;47.098;15.474;2023-09-19T08:49:36;23.20;99.90
11762;DHT22;5938;47.098;15.474;2023-09-19T08:53:42;23.80;99.90
11762;DHT22;5938;47.098;15.474;2023-09-19T08:57:52;24.30;99.90
11762;DHT22;5938;47.098;15.474;2023-09-19T09:02:00;26.30;99.70
11762;DHT22;5938;47.098;15.474;2023-09-19T09:06:08;28.30;95.90
11762;DHT22;5938;47.098;15.474;2023-09-19T09:10:14;28.90;92.20
11762;DHT22;5938;47.098;15.474;2023-09-19T09:14:20;28.40;91.80
11762;DHT22;5938;47.098;15.474;2023-09-19T09:18:25;28.60;90.80
11762;DHT22;5938;47.098;15.474;2023-09-19T09:22:29;28.50;91.20
11762;DHT22;5938;47.098;15.474;2023-09-19T09:26:41;27.20;91.40
11762;DHT22;5938;47.098;15.474;2023-09-19T09:30:47;27.30;91.40
11762;DHT22;5938;47.098;15.474;2023-09-19T09:34:53;27.70;91.50
11762;DHT22;5938;47.098;15.474;2023-09-19T09:38:59;27.20;92.50
11762;DHT22;5938;47.098;15.474;2023-09-19T09:43:29;26.20;93.40
11762;DHT22;5938;47.098;15.474;2023-09-19T09:47:43;25.80;92.80
11762;DHT22;5938;47.098;15.474;2023-09-19T09:52:07;25.70;94.40
11762;DHT22;5938;47.098;15.474;2023-09-19T09:56:19;25.20;94.70
11762;DHT22;5938;47.098;15.474;2023-09-19T10:00:22;25.10;94.40
11762;DHT22;5938;47.098;15.474;2023-09-19T10:04:35;26.20;94.10
11762;DHT22;5938;47.098;15.474;2023-09-19T10:08:58;26.40;93.20
11762;DHT22;5938;47.098;15.474;2023-09-19T10:13:14;27.20;91.20
11762;DHT22;5938;47.098;15.474;2023-09-19T10:17:21;29.40;86.70
11762;DHT22;5938;47.098;15.474;2023-09-19T10:21:28;28.50;85.90
11762;DHT22;5938;47.098;15.474;2023-09-19T10:25:32;28.80;87.90
11762;DHT22;5938;47.098;15.474;2023-09-19T10:29:39;29.20;84.40
11762;DHT22;5938;47.098;15.474;2023-09-19T10:33:44;29.50;83.40
11762;DHT22;5938;47.098;15.474;2023-09-19T10:37:50;30.50;79.70
11762;DHT22;5938;47.098;15.474;2023-09-19T10:41:57;29.60;79.70
11762;DHT22;5938;47.098;15.474;2023-09-19T10:46:07;30.20;79.50
11762;DHT22;5938;47.098;15.474;2023-09-19T10:50:19;31.60;75.00
11762;DHT22;5938;47.098;15.474;2023-09-19T10:54:28;31.90;75.20
11762;DHT22;5938;47.098;15.474;2023-09-19T10:58:35;31.20;78.10
11762;DHT22;5938;47.098;15.474;2023-09-19T11:02:43;31.60;76.10
11762;DHT22;5938;47.098;15.474;2023-09-19T11:07:00;32.80;72.90
11762;DHT22;5938;47.098;15.474;2023-09-19T11:11:39;33.40;70.70
11762;DHT22;5938;47.098;15.474;2023-09-19T11:16:17;34.60;65.90
11762;DHT22;5938;47.098;15.474;2023-09-19T11:20:23;34.80;66.10
11762;DHT22;5938;47.098;15.474;2023-09-19T11:24:43;34.70;66.00
11762;DHT22;5938;47.098;15.474;2023-09-19T11:29:24;35.00;66.30
11762;DHT22;5938;47.098;15.474;2023-09-19T11:33:28;35.30;64.60
11762;DHT22;5938;47.098;15.474;2023-09-19T11:38:00;35.80;63.00
11762;DHT22;5938;47.098;15.474;2023-09-19T11:42:43;36.70;60.10
11762;DHT22;5938;47.098;15.474;2023-09-19T11:46:59;36.50;59.10
11762;DHT22;5938;47.098;15.474;2023-09-19T11:51:18;36.10;60.70
11762;DHT22;5938;47.098;15.474;2023-09-19T11:55:25;34.10;62.30
11762;DHT22;5938;47.098;15.474;2023-09-19T11:59:33;33.90;65.40
11762;DHT22;5938;47.098;15.474;2023-09-19T12:03:42;33.90;68.20
11762;DHT22;5938;47.098;15.474;2023-09-19T12:07:45;34.50;62.80
11762;DHT22;5938;47.098;15.474;2023-09-19T12:11:49;34.70;62.70
11762;DHT22;5938;47.098;15.474;2023-09-19T12:15:53;35.10;63.80
11762;DHT22;5938;47.098;15.474;2023-09-19T12:19:59;35.70;61.00
11762;DHT22;5938;47.098;15.474;2023-09-19T12:24:13;35.70;61.00
11762;DHT22;5938;47.098;15.474;2023-09-19T12:28:19;37.40;61.00
11762;DHT22;5938;47.098;15.474;2023-09-19T12:32:34;38.50;57.30
11762;DHT22;5938;47.098;15.474;2023-09-19T12:36:42;36.60;58.70
11762;DHT22;5938;47.098;15.474;2023-09-19T12:40:48;35.80;60.10
11762;DHT22;5938;47.098;15.474;2023-09-19T12:44:54;38.10;57.00
11762;DHT22;5938;47.098;15.474;2023-09-19T12:49:15;39.00;53.60
11762;DHT22;5938;47.098;15.474;2023-09-19T12:53:27;39.10;52.00
11762;DHT22;5938;47.098;15.474;2023-09-19T12:57:31;39.40;51.50
11762;DHT22;5938;47.098;15.474;2023-09-19T13:01:38;38.70;51.70
11762;DHT22;5938;47.098;15.474;2023-09-19T13:05:55;34.40;60.80
11762;DHT22;5938;47.098;15.474;2023-09-19T13:10:07;32.50;64.30
11762;DHT22;5938;47.098;15.474;2023-09-19T13:14:17;34.10;62.30
11762;DHT22;5938;47.098;15.474;2023-09-19T13:18:26;32.50;63.70
11762;DHT22;5938;47.098;15.474;2023-09-19T13:22:40;30.50;74.20
11762;DHT22;5938;47.098;15.474;2023-09-19T13:26:50;28.40;82.60
11762;DHT22;5938;47.098;15.474;2023-09-19T13:30:56;26.60;87.50
11762;DHT22;5938;47.098;15.474;2023-09-19T13:35:05;25.40;92.40
11762;DHT22;5938;47.098;15.474;2023-09-19T13:39:24;24.60;94.00
11762;DHT22;5938;47.098;15.474;2023-09-19T13:43:56;27.40;90.80
11762;DHT22;5938;47.098;15.474;2023-09-19T13:48:00;31.70;75.80
11762;DHT22;5938;47.098;15.474;2023-09-19T13:52:05;30.80;75.00
11762;DHT22;5938;47.098;15.474;2023-09-19T13:56:18;32.30;71.50
11762;DHT22;5938;47.098;15.474;2023-09-19T14:00:38;35.80;61.70
11762;DHT22;5938;47.098;15.474;2023-09-19T14:04:49;35.50;58.30
11762;DHT22;5938;47.098;15.474;2023-09-19T14:08:54;32.50;70.10
11762;DHT22;5938;47.098;15.474;2023-09-19T14:13:01;29.70;77.30
11762;DHT22;5938;47.098;15.474;2023-09-19T14:17:07;27.60;79.50
11762;DHT22;5938;47.098;15.474;2023-09-19T14:21:12;26.70;82.70
11762;DHT22;5938;47.098;15.474;2023-09-19T14:29:19;24.00;94.60
11762;DHT22;5938;47.098;15.474;2023-09-19T14:33:25;22.80;99.90
11762;DHT22;5938;47.098;15.474;2023-09-19T14:37:29;23.00;99.90
11762;DHT22;5938;47.098;15.474;2023-09-19T14:55:52;20.80;99.90
11762;DHT22;5938;47.098;15.474;2023-09-19T14:59:57;20.20;99.90
11762;DHT22;5938;47.098;15.474;2023-09-19T15:04:03;19.90;99.90
11762;DHT22;5938;47.098;15.474;2023-09-19T15:08:07;19.80;99.90
11762;DHT22;5938;47.098;15.474;2023-09-19T15:12:13;19.70;99.90
11762;DHT22;5938;47.098;15.474;2023-09-19T15:16:18;19.50;99.90
11762;DHT22;5938;47.098;15.474;2023-09-19T15:20:23;19.50;99.90
11762;DHT22;5938;47.098;15.474;2023-09-19T15:24:28;19.60;99.90
11762;DHT22;5938;47.098;15.474;2023-09-19T15:28:34;19.60;99.90
11762;DHT22;5938;47.098;15.474;2023-09-19T15:32:39;19.80;99.90
11762;DHT22;5938;47.098;15.474;2023-09-19T15:36:43;20.00;99.90
11762;DHT22;5938;47.098;15.474;2023-09-19T15:40:48;20.00;99.90
11762;DHT22;5938;47.098;15.474;2023-09-19T15:44:53;20.00;99.90
11762;DHT22;5938;47.098;15.474;2023-09-19T15:48:58;19.90;99.90
11762;DHT22;5938;47.098;15.474;2023-09-19T15:53:03;19.70;99.90
11762;DHT22;5938;47.098;15.474;2023-09-19T15:57:08;19.60;99.90
11762;DHT22;5938;47.098;15.474;2023-09-19T16:01:16;19.40;99.90
11762;DHT22;5938;47.098;15.474;2023-09-19T16:05:20;19.30;99.90
11762;DHT22;5938;47.098;15.474;2023-09-19T16:09:24;19.20;99.90
11762;DHT22;5938;47.098;15.474;2023-09-19T16:13:28;19.20;99.90
11762;DHT22;5938;47.098;15.474;2023-09-19T16:17:33;19.20;99.90
11762;DHT22;5938;47.098;15.474;2023-09-19T16:21:39;19.30;99.90
11762;DHT22;5938;47.098;15.474;2023-09-19T16:25:46;19.40;99.90
11762;DHT22;5938;47.098;15.474;2023-09-19T16:29:50;19.40;99.90
11762;DHT22;5938;47.098;15.474;2023-09-19T16:33:58;19.20;99.90
11762;DHT22;5938;47.098;15.474;2023-09-19T16:38:03;19.00;99.90
11762;DHT22;5938;47.098;15.474;2023-09-19T16:42:11;18.90;99.90
11762;DHT22;5938;47.098;15.474;2023-09-19T16:46:23;18.60;99.90
11762;DHT22;5938;47.098;15.474;2023-09-19T16:50:32;18.40;99.90
11762;DHT22;5938;47.098;15.474;2023-09-19T16:54:36;18.20;99.90
11762;DHT22;5938;47.098;15.474;2023-09-19T16:58:43;18.10;99.90
11762;DHT22;5938;47.098;15.474;2023-09-19T17:02:47;18.00;99.90
11762;DHT22;5938;47.098;15.474;2023-09-19T17:06:57;17.80;99.90
11762;DHT22;5938;47.098;15.474;2023-09-19T17:11:05;17.60;99.90
11762;DHT22;5938;47.098;15.474;2023-09-19T17:15:11;17.50;99.90
11762;DHT22;5938;47.098;15.474;2023-09-19T17:19:17;17.30;99.90
11762;DHT22;5938;47.098;15.474;2023-09-19T17:23:27;17.20;99.90
11762;DHT22;5938;47.098;15.474;2023-09-19T17:27:33;17.10;99.90
11762;DHT22;5938;47.098;15.474;2023-09-19T17:31:38;16.90;99.90
11762;DHT22;5938;47.098;15.474;2023-09-19T17:35:43;16.90;99.90
11762;DHT22;5938;47.098;15.474;2023-09-19T17:39:48;16.80;99.90
11762;DHT22;5938;47.098;15.474;2023-09-19T17:43:58;16.70;99.90
11762;DHT22;5938;47.098;15.474;2023-09-19T17:48:05;16.70;99.90
11762;DHT22;5938;47.098;15.474;2023-09-19T17:52:11;16.60;99.90
11762;DHT22;5938;47.098;15.474;2023-09-19T17:56:21;16.50;99.90
11762;DHT22;5938;47.098;15.474;2023-09-19T18:00:27;16.40;99.90
11762;DHT22;5938;47.098;15.474;2023-09-19T18:04:39;16.30;99.90
11762;DHT22;5938;47.098;15.474;2023-09-19T18:08:48;16.30;99.90
11762;DHT22;5938;47.098;15.474;2023-09-19T18:12:55;16.20;99.90
11762;DHT22;5938;47.098;15.474;2023-09-19T18:17:03;16.10;99.90
11762;DHT22;5938;47.098;15.474;2023-09-19T18:21:09;16.10;99.90
11762;DHT22;5938;47.098;15.474;2023-09-19T18:25:16;16.00;99.90
11762;DHT22;5938;47.098;15.474;2023-09-19T18:29:25;16.10;99.90
11762;DHT22;5938;47.098;15.474;2023-09-19T18:33:40;16.00;99.90
11762;DHT22;5938;47.098;15.474;2023-09-19T18:37:46;16.00;99.90
11762;DHT22;5938;47.098;15.474;2023-09-19T18:41:52;15.80;99.90
11762;DHT22;5938;47.098;15.474;2023-09-19T18:46:02;15.80;99.90
11762;DHT22;5938;47.098;15.474;2023-09-19T18:50:12;15.80;99.90
11762;DHT22;5938;47.098;15.474;2023-09-19T18:54:19;15.70;99.90
11762;DHT22;5938;47.098;15.474;2023-09-19T18:58:25;15.70;99.90
11762;DHT22;5938;47.098;15.474;2023-09-19T19:02:32;15.70;99.90
11762;DHT22;5938;47.098;15.474;2023-09-19T19:06:38;15.60;99.90
11762;DHT22;5938;47.098;15.474;2023-09-19T19:10:45;15.60;99.90
11762;DHT22;5938;47.098;15.474;2023-09-19T19:14:50;15.50;99.90
11762;DHT22;5938;47.098;15.474;2023-09-19T19:19:00;15.40;99.90
11762;DHT22;5938;47.098;15.474;2023-09-19T19:23:09;15.30;99.90
11762;DHT22;5938;47.098;15.474;2023-09-19T19:27:15;15.30;99.90
11762;DHT22;5938;47.098;15.474;2023-09-19T19:31:22;15.20;99.90
11762;DHT22;5938;47.098;15.474;2023-09-19T19:35:32;15.20;99.90
11762;DHT22;5938;47.098;15.474;2023-09-19T19:39:39;15.20;99.90
11762;DHT22;5938;47.098;15.474;2023-09-19T19:43:46;15.20;99.90
11762;DHT22;5938;47.098;15.474;2023-09-19T19:47:54;15.10;99.90
11762;DHT22;5938;47.098;15.474;2023-09-19T19:52:03;15.10;99.90
11762;DHT22;5938;47.098;15.474;2023-09-19T19:56:09;15.00;99.90
11762;DHT22;5938;47.098;15.474;2023-09-19T20:00:15;15.00;99.90
11762;DHT22;5938;47.098;15.474;2023-09-19T20:04:23;15.00;99.90
11762;DHT22;5938;47.098;15.474;2023-09-19T20:08:33;15.00;99.90
11762;DHT22;5938;47.098;15.474;2023-09-19T20:12:39;15.00;99.90
11762;DHT22;5938;47.098;15.474;2023-09-19T20:16:44;15.00;99.90
11762;DHT22;5938;47.098;15.474;2023-09-19T20:20:51;15.10;99.90
11762;DHT22;5938;47.098;15.474;2023-09-19T20:24:58;15.10;99.90
11762;DHT22;5938;47.098;15.474;2023-09-19T20:29:04;15.10;99.90
11762;DHT22;5938;47.098;15.474;2023-09-19T20:33:12;15.20;99.90
11762;DHT22;5938;47.098;15.474;2023-09-19T20:37:20;15.10;99.90
11762;DHT22;5938;47.098;15.474;2023-09-19T20:41:28;15.10;99.90
11762;DHT22;5938;47.098;15.474;2023-09-19T20:45:35;15.00;99.90
11762;DHT22;5938;47.098;15.474;2023-09-19T20:49:44;14.90;99.90
11762;DHT22;5938;47.098;15.474;2023-09-19T20:53:48;14.90;99.90
11762;DHT22;5938;47.098;15.474;2023-09-19T20:57:56;14.70;99.90
11762;DHT22;5938;47.098;15.474;2023-09-19T21:02:01;14.70;99.90
11762;DHT22;5938;47.098;15.474;2023-09-19T21:06:06;14.60;99.90
11762;DHT22;5938;47.098;15.474;2023-09-19T21:10:10;14.60;99.90
11762;DHT22;5938;47.098;15.474;2023-09-19T21:14:16;14.50;99.90
11762;DHT22;5938;47.098;15.474;2023-09-19T21:18:21;14.40;99.90
11762;DHT22;5938;47.098;15.474;2023-09-19T21:22:24;14.40;99.90
11762;DHT22;5938;47.098;15.474;2023-09-19T21:26:28;14.30;99.90
11762;DHT22;5938;47.098;15.474;2023-09-19T21:30:33;14.20;99.90
11762;DHT22;5938;47.098;15.474;2023-09-19T21:34:37;14.20;99.90
11762;DHT22;5938;47.098;15.474;2023-09-19T21:38:40;14.20;99.90
11762;DHT22;5938;47.098;15.474;2023-09-19T21:42:44;14.10;99.90
11762;DHT22;5938;47.098;15.474;2023-09-19T21:46:49;14.10;99.90
11762;DHT22;5938;47.098;15.474;2023-09-19T21:50:56;14.10;99.90
11762;DHT22;5938;47.098;15.474;2023-09-19T21:55:00;14.10;99.90
11762;DHT22;5938;47.098;15.474;2023-09-19T21:59:05;14.00;99.90
11762;DHT22;5938;47.098;15.474;2023-09-19T22:03:11;14.00;99.90
11762;DHT22;5938;47.098;15.474;2023-09-19T22:07:15;14.00;99.90
11762;DHT22;5938;47.098;15.474;2023-09-19T22:11:19;13.90;99.90
11762;DHT22;5938;47.098;15.474;2023-09-19T22:15:23;13.80;99.90
11762;DHT22;5938;47.098;15.474;2023-09-19T22:19:29;13.80;99.90
11762;DHT22;5938;47.098;15.474;2023-09-19T22:23:33;13.80;99.90
11762;DHT22;5938;47.098;15.474;2023-09-19T22:27:38;13.70;99.90
11762;DHT22;5938;47.098;15.474;2023-09-19T22:31:42;13.70;99.90
11762;DHT22;5938;47.098;15.474;2023-09-19T22:35:47;13.60;99.90
11762;DHT22;5938;47.098;15.474;2023-09-19T22:40:04;13.50;99.90
11762;DHT22;5938;47.098;15.474;2023-09-19T22:44:28;13.60;99.90
11762;DHT22;5938;47.098;15.474;2023-09-19T22:48:33;13.50;99.90
11762;DHT22;5938;47.098;15.474;2023-09-19T22:52:39;13.50;99.90
11762;DHT22;5938;47.098;15.474;2023-09-19T22:56:49;13.50;99.90
11762;DHT22;5938;47.098;15.474;2023-09-19T23:00:54;13.40;99.90
11762;DHT22;5938;47.098;15.474;2023-09-19T23:04:59;13.40;99.90
11762;DHT22;5938;47.098;15.474;2023-09-19T23:09:07;13.30;99.90
11762;DHT22;5938;47.098;15.474;2023-09-19T23:13:12;13.30;99.90
11762;DHT22;5938;47.098;15.474;2023-09-19T23:17:23;13.30;99.90
11762;DHT22;5938;47.098;15.474;2023-09-19T23:21:27;13.30;99.90
11762;DHT22;5938;47.098;15.474;2023-09-19T23:25:32;13.30;99.90
11762;DHT22;5938;47.098;15.474;2023-09-19T23:29:48;13.20;99.90
11762;DHT22;5938;47.098;15.474;2023-09-19T23:33:52;13.10;99.90
11762;DHT22;5938;47.098;15.474;2023-09-19T23:37:56;13.20;99.90
11762;DHT22;5938;47.098;15.474;2023-09-19T23:42:02;13.10;99.90
11762;DHT22;5938;47.098;15.474;2023-09-19T23:46:05;13.10;99.90
11762;DHT22;5938;47.098;15.474;2023-09-19T23:50:10;13.00;99.90
11762;DHT22;5938;47.098;15.474;2023-09-19T23:54:14;13.00;99.90
11762;DHT22;5938;47.098;15.474;2023-09-19T23:58:26;13.00;99.90
